Time;durP1;ratioP1;P1;durP2;ratioP2;P2;SDS_P1;SDS_P2;PMS_P1;PMS_P2;Temp;Humidity;BMP_temperature;BMP_pressure;BME280_temperature;BME280_humidity;BME280_pressure;Samples;Min_cycle;Max_cycle;Signal;HPM_P1;HPM_P2
2022/12/31 00:00:29;;;;;;;2.28;0.80;;;;;;;;;;5057774;28;20066;-57
2022/12/31 00:02:54;;;;;;;1.15;0.90;;;;;;;;;;5057240;28;20028;-57
2022/12/31 00:05:19;;;;;;;0.80;0.70;;;;;;;;;;5052638;28;20039;-57
2022/12/31 00:07:45;;;;;;;0.70;0.70;;;;;;;;;;5057545;28;20169;-57
2022/12/31 00:10:11;;;;;;;0.85;0.70;;;;;;;;;;5057140;28;20049;-57
2022/12/31 00:12:36;;;;;;;0.70;0.70;;;;;;;;;;5057193;28;20020;-57
2022/12/31 00:15:02;;;;;;;0.40;0.40;;;;;;;;;;5057379;28;20488;-57
2022/12/31 00:17:27;;;;;;;0.95;0.93;;;;;;;;;;5055122;28;20194;-57
2022/12/31 00:19:52;;;;;;;1.13;0.88;;;;;;;;;;5057178;28;20569;-56
2022/12/31 00:22:17;;;;;;;0.88;0.88;;;;;;;;;;5056786;28;20490;-57
2022/12/31 00:24:43;;;;;;;0.77;0.77;;;;;;;;;;5057295;28;20421;-57
2022/12/31 00:27:08;;;;;;;1.20;0.93;;;;;;;;;;5056683;28;20053;-57
2022/12/31 00:29:33;;;;;;;1.50;0.75;;;;;;;;;;5055173;28;20020;-57
2022/12/31 00:31:58;;;;;;;0.68;0.50;;;;;;;;;;5056009;28;20032;-57
2022/12/31 00:34:23;;;;;;;0.95;0.57;;;;;;;;;;5056878;28;20051;-57
2022/12/31 00:36:49;;;;;;;1.77;0.70;;;;;;;;;;5055714;28;20647;-57
2022/12/31 00:39:14;;;;;;;1.95;0.60;;;;;;;;;;5056775;28;20073;-57
2022/12/31 00:41:39;;;;;;;0.50;0.50;;;;;;;;;;5056763;28;20086;-57
2022/12/31 00:44:04;;;;;;;1.50;0.75;;;;;;;;;;5052096;28;20032;-58
2022/12/31 00:46:30;;;;;;;1.65;0.70;;;;;;;;;;5056449;28;20459;-58
2022/12/31 00:48:55;;;;;;;0.70;0.68;;;;;;;;;;5056939;28;20118;-57
2022/12/31 00:51:22;;;;;;;0.63;0.55;;;;;;;;;;5057000;28;20449;-58
2022/12/31 00:53:47;;;;;;;0.65;0.65;;;;;;;;;;5059461;28;20024;-57
2022/12/31 00:56:13;;;;;;;0.70;0.70;;;;;;;;;;5060321;28;20024;-57
2022/12/31 00:58:38;;;;;;;0.65;0.65;;;;;;;;;;5059094;28;20051;-57
2022/12/31 01:01:10;;;;;;;2.17;0.68;;;;;;;;;;5059672;28;20557;-57
2022/12/31 01:03:35;;;;;;;1.52;0.60;;;;;;;;;;5060094;28;20119;-57
2022/12/31 01:06:00;;;;;;;4.07;0.75;;;;;;;;;;5060650;28;20072;-57
2022/12/31 01:08:26;;;;;;;2.05;0.70;;;;;;;;;;5060107;28;20380;-57
2022/12/31 01:13:35;;;;;;;0.43;0.43;;;;;;;;;;5055662;28;20028;-57
2022/12/31 01:16:10;;;;;;;1.30;0.50;;;;;;;;;;5058875;28;20443;-57
2022/12/31 01:18:35;;;;;;;0.50;0.50;;;;;;;;;;5055461;28;20032;-57
2022/12/31 01:21:02;;;;;;;0.73;0.60;;;;;;;;;;5060650;28;20043;-57
2022/12/31 01:23:27;;;;;;;1.85;0.65;;;;;;;;;;5060617;28;20020;-57
2022/12/31 01:25:52;;;;;;;0.47;0.47;;;;;;;;;;5059924;28;20078;-57
2022/12/31 01:28:17;;;;;;;0.32;0.32;;;;;;;;;;5060020;28;20020;-55
2022/12/31 01:30:43;;;;;;;0.38;0.30;;;;;;;;;;5061060;28;20020;-57
2022/12/31 01:33:11;;;;;;;0.82;0.40;;;;;;;;;;5057060;28;20052;-55
2022/12/31 01:35:36;;;;;;;0.40;0.40;;;;;;;;;;5060623;28;20020;-57
2022/12/31 01:38:01;;;;;;;0.93;0.32;;;;;;;;;;5059967;28;20408;-57
2022/12/31 01:40:26;;;;;;;0.30;0.30;;;;;;;;;;5059955;28;20021;-56
2022/12/31 01:42:52;;;;;;;0.20;0.20;;;;;;;;;;5058929;28;20086;-56
2022/12/31 01:45:18;;;;;;;0.28;0.28;;;;;;;;;;5054776;28;20020;-57
2022/12/31 01:47:47;;;;;;;0.32;0.32;;;;;;;;;;5057021;28;20230;-57
2022/12/31 01:50:16;;;;;;;0.17;0.15;;;;;;;;;;5058366;28;20033;-57
2022/12/31 01:52:46;;;;;;;0.30;0.30;;;;;;;;;;5060314;28;20117;-57
2022/12/31 01:55:13;;;;;;;0.30;0.30;;;;;;;;;;5057747;28;20063;-56
2022/12/31 01:57:39;;;;;;;0.45;0.45;;;;;;;;;;5057853;28;20573;-57
2022/12/31 02:00:05;;;;;;;0.40;0.40;;;;;;;;;;5057983;28;20035;-57
2022/12/31 02:02:30;;;;;;;0.38;0.38;;;;;;;;;;5059034;28;20671;-57
2022/12/31 02:04:56;;;;;;;0.30;0.30;;;;;;;;;;5059218;28;20035;-57
2022/12/31 02:07:21;;;;;;;0.22;0.22;;;;;;;;;;5055066;28;20102;-57
2022/12/31 02:09:46;;;;;;;0.65;0.47;;;;;;;;;;5058065;28;20104;-57
2022/12/31 02:12:11;;;;;;;0.55;0.55;;;;;;;;;;5058562;28;20540;-57
2022/12/31 02:14:38;;;;;;;2.53;0.38;;;;;;;;;;5058838;28;20479;-57
2022/12/31 02:17:22;;;;;;;0.93;0.68;;;;;;;;;;5057865;28;20016;-57
2022/12/31 02:19:52;;;;;;;1.45;0.68;;;;;;;;;;5057006;28;20039;-57
2022/12/31 02:22:36;;;;;;;0.60;0.60;;;;;;;;;;5032215;28;20036;-56
2022/12/31 02:25:02;;;;;;;1.83;0.90;;;;;;;;;;5058840;28;20217;-57
2022/12/31 02:27:27;;;;;;;1.55;0.88;;;;;;;;;;5055707;28;20294;-57
2022/12/31 02:29:52;;;;;;;1.40;0.90;;;;;;;;;;5059303;28;20040;-57
2022/12/31 02:32:22;;;;;;;0.75;0.75;;;;;;;;;;5058877;28;20549;-56
2022/12/31 02:34:50;;;;;;;1.17;0.90;;;;;;;;;;5058909;28;20305;-56
2022/12/31 02:37:15;;;;;;;2.08;0.95;;;;;;;;;;5058361;28;20638;-57
2022/12/31 02:39:41;;;;;;;2.17;0.98;;;;;;;;;;5058958;28;20031;-57
2022/12/31 02:42:06;;;;;;;2.05;0.90;;;;;;;;;;5058133;28;20017;-56
2022/12/31 02:44:35;;;;;;;0.90;0.70;;;;;;;;;;5052484;28;20020;-57
2022/12/31 02:47:18;;;;;;;1.38;0.85;;;;;;;;;;5059045;28;20292;-56
2022/12/31 02:49:49;;;;;;;1.88;0.88;;;;;;;;;;5054548;28;20198;-56
2022/12/31 02:52:17;;;;;;;0.80;0.80;;;;;;;;;;5058958;28;20023;-56
2022/12/31 02:54:42;;;;;;;2.65;0.70;;;;;;;;;;5053970;28;20545;-56
2022/12/31 02:57:13;;;;;;;0.82;0.82;;;;;;;;;;5055607;28;20321;-57
2022/12/31 03:02:24;;;;;;;1.40;1.00;;;;;;;;;;5057927;28;20035;-57
2022/12/31 03:04:50;;;;;;;1.08;0.90;;;;;;;;;;5059044;28;20378;-57
2022/12/31 03:07:22;;;;;;;1.63;1.17;;;;;;;;;;5051257;28;20254;-57
2022/12/31 03:09:48;;;;;;;2.95;0.98;;;;;;;;;;5058004;28;20033;-57
2022/12/31 03:14:57;;;;;;;2.25;1.00;;;;;;;;;;5057222;28;20139;-57
2022/12/31 03:17:22;;;;;;;3.15;1.10;;;;;;;;;;5058914;28;20115;-57
2022/12/31 03:22:32;;;;;;;2.50;1.00;;;;;;;;;;5058823;28;20064;-57
2022/12/31 03:27:44;;;;;;;1.75;1.00;;;;;;;;;;5053717;28;20439;-56
2022/12/31 03:30:10;;;;;;;0.80;0.80;;;;;;;;;;5058308;28;20040;-57
2022/12/31 03:32:35;;;;;;;1.13;0.90;;;;;;;;;;5057332;28;20009;-56
2022/12/31 03:35:01;;;;;;;1.15;0.80;;;;;;;;;;5056500;28;20533;-57
2022/12/31 03:37:26;;;;;;;3.05;1.27;;;;;;;;;;5073581;28;20025;-57
2022/12/31 03:39:51;;;;;;;4.63;1.02;;;;;;;;;;5058051;28;20043;-57
2022/12/31 03:42:17;;;;;;;1.13;1.00;;;;;;;;;;5054034;28;20021;-56
2022/12/31 03:44:42;;;;;;;2.85;1.17;;;;;;;;;;5053394;28;20450;-57
2022/12/31 03:47:07;;;;;;;2.08;1.42;;;;;;;;;;5056866;28;20047;-57
2022/12/31 03:49:32;;;;;;;1.80;0.82;;;;;;;;;;5056799;28;20552;-56
2022/12/31 03:51:58;;;;;;;0.50;0.50;;;;;;;;;;5058171;28;20020;-56
2022/12/31 03:54:23;;;;;;;2.63;0.82;;;;;;;;;;5053389;28;20024;-57
2022/12/31 03:56:48;;;;;;;2.17;0.85;;;;;;;;;;5052793;28;20272;-55
2022/12/31 03:59:14;;;;;;;2.25;1.17;;;;;;;;;;5068892;28;20009;-56
2022/12/31 04:01:39;;;;;;;1.92;1.25;;;;;;;;;;5057400;28;20028;-56
2022/12/31 04:04:04;;;;;;;2.25;0.95;;;;;;;;;;5058044;28;20119;-56
2022/12/31 04:06:29;;;;;;;5.10;1.02;;;;;;;;;;5057344;28;20472;-57
2022/12/31 04:08:54;;;;;;;1.05;0.90;;;;;;;;;;5057718;28;20059;-57
2022/12/31 04:11:20;;;;;;;3.20;1.08;;;;;;;;;;5057582;28;20024;-56
2022/12/31 04:13:45;;;;;;;1.70;1.40;;;;;;;;;;5057556;28;20090;-56
2022/12/31 04:16:10;;;;;;;2.15;1.20;;;;;;;;;;5057317;28;20339;-56
2022/12/31 04:18:35;;;;;;;1.45;1.10;;;;;;;;;;5057474;28;20033;-56
2022/12/31 04:21:01;;;;;;;3.17;1.23;;;;;;;;;;5057601;28;20044;-57
2022/12/31 04:23:27;;;;;;;2.08;0.85;;;;;;;;;;5056043;28;20025;-57
2022/12/31 04:25:52;;;;;;;2.33;1.30;;;;;;;;;;5055765;28;20017;-57
2022/12/31 04:28:17;;;;;;;3.60;1.13;;;;;;;;;;5056660;28;20439;-57
2022/12/31 04:30:42;;;;;;;1.08;0.90;;;;;;;;;;5057547;28;20066;-57
2022/12/31 04:33:07;;;;;;;1.75;0.95;;;;;;;;;;5056812;28;20017;-57
2022/12/31 04:35:33;;;;;;;2.60;1.10;;;;;;;;;;5058159;28;20457;-57
2022/12/31 04:37:58;;;;;;;1.88;1.08;;;;;;;;;;5057062;28;20496;-57
2022/12/31 04:40:23;;;;;;;3.38;1.30;;;;;;;;;;5054596;28;20039;-57
2022/12/31 04:42:49;;;;;;;2.15;1.10;;;;;;;;;;5049943;28;20130;-57
2022/12/31 04:45:14;;;;;;;2.90;1.25;;;;;;;;;;5050715;28;20087;-57
2022/12/31 04:47:39;;;;;;;2.92;1.50;;;;;;;;;;5056488;28;20020;-57
2022/12/31 04:50:05;;;;;;;1.30;1.20;;;;;;;;;;5057087;28;20218;-57
2022/12/31 04:52:30;;;;;;;1.20;1.05;;;;;;;;;;5057135;28;20244;-57
2022/12/31 04:54:55;;;;;;;3.22;1.60;;;;;;;;;;5057909;28;20753;-57
2022/12/31 04:57:20;;;;;;;4.47;1.40;;;;;;;;;;5057130;28;20115;-57
2022/12/31 04:59:46;;;;;;;3.85;1.48;;;;;;;;;;5056428;28;20351;-56
2022/12/31 05:02:11;;;;;;;2.50;1.10;;;;;;;;;;5056866;28;20025;-57
2022/12/31 05:04:36;;;;;;;4.35;1.40;;;;;;;;;;5057681;28;20556;-56
2022/12/31 05:07:01;;;;;;;2.20;1.25;;;;;;;;;;5053470;28;20140;-57
2022/12/31 05:09:27;;;;;;;2.88;1.20;;;;;;;;;;5054706;28;20529;-58
2022/12/31 05:11:52;;;;;;;3.13;1.30;;;;;;;;;;5056804;28;20073;-57
2022/12/31 05:14:17;;;;;;;7.18;1.35;;;;;;;;;;5057799;28;20367;-57
2022/12/31 05:16:43;;;;;;;3.88;1.50;;;;;;;;;;5056677;28;20099;-57
2022/12/31 05:19:08;;;;;;;3.53;1.20;;;;;;;;;;5051803;28;20173;-57
2022/12/31 05:21:33;;;;;;;3.10;1.40;;;;;;;;;;5057475;28;20012;-56
2022/12/31 05:23:58;;;;;;;4.53;1.35;;;;;;;;;;5056970;28;20112;-57
2022/12/31 05:26:24;;;;;;;5.13;1.60;;;;;;;;;;5054904;28;20661;-56
2022/12/31 05:28:51;;;;;;;6.93;2.10;;;;;;;;;;5055911;28;20236;-57
2022/12/31 05:31:16;;;;;;;1.92;1.40;;;;;;;;;;5054713;28;20032;-57
2022/12/31 05:33:42;;;;;;;5.45;1.52;;;;;;;;;;5056542;28;20035;-57
2022/12/31 05:36:07;;;;;;;4.32;1.52;;;;;;;;;;5054780;28;20032;-57
2022/12/31 05:38:32;;;;;;;5.07;1.50;;;;;;;;;;5054701;28;20031;-57
2022/12/31 05:40:58;;;;;;;5.35;1.50;;;;;;;;;;5057178;28;20425;-57
2022/12/31 05:43:24;;;;;;;2.22;1.50;;;;;;;;;;5057373;28;20097;-57
2022/12/31 05:45:49;;;;;;;6.57;1.48;;;;;;;;;;5056662;28;20034;-56
2022/12/31 05:48:14;;;;;;;3.85;1.50;;;;;;;;;;5057646;28;20124;-57
2022/12/31 05:50:39;;;;;;;3.67;1.60;;;;;;;;;;5056652;28;20456;-57
2022/12/31 05:53:04;;;;;;;3.33;1.50;;;;;;;;;;5058986;28;20525;-57
2022/12/31 05:55:30;;;;;;;2.90;1.50;;;;;;;;;;5059082;28;20604;-57
2022/12/31 05:57:55;;;;;;;2.70;1.45;;;;;;;;;;5054630;28;20058;-56
2022/12/31 06:00:20;;;;;;;3.75;1.50;;;;;;;;;;5058926;28;20572;-57
2022/12/31 06:02:45;;;;;;;3.67;1.50;;;;;;;;;;5058932;28;20158;-58
2022/12/31 06:05:11;;;;;;;5.07;1.50;;;;;;;;;;5058400;28;20052;-56
2022/12/31 06:07:36;;;;;;;2.75;1.55;;;;;;;;;;5057755;28;20029;-58
2022/12/31 06:10:01;;;;;;;4.32;1.80;;;;;;;;;;5058869;28;20051;-58
2022/12/31 06:12:26;;;;;;;7.22;1.83;;;;;;;;;;5059780;28;20324;-58
2022/12/31 06:14:52;;;;;;;3.65;1.67;;;;;;;;;;5057066;28;20020;-57
2022/12/31 06:17:18;;;;;;;3.97;1.98;;;;;;;;;;5059104;28;20081;-58
2022/12/31 06:19:43;;;;;;;3.13;1.77;;;;;;;;;;5057251;28;20067;-56
2022/12/31 06:22:08;;;;;;;4.70;1.73;;;;;;;;;;5059569;28;20291;-56
2022/12/31 06:24:33;;;;;;;3.88;1.90;;;;;;;;;;5059613;28;20028;-57
2022/12/31 06:26:58;;;;;;;9.65;2.10;;;;;;;;;;5057422;28;20208;-55
2022/12/31 06:29:24;;;;;;;4.90;1.60;;;;;;;;;;5057840;28;20072;-59
2022/12/31 06:31:49;;;;;;;4.50;1.65;;;;;;;;;;5059431;28;20051;-56
2022/12/31 06:34:14;;;;;;;5.50;2.00;;;;;;;;;;5057251;28;20030;-56
2022/12/31 06:36:39;;;;;;;8.45;1.83;;;;;;;;;;5059831;28;20520;-56
2022/12/31 06:39:05;;;;;;;5.72;2.08;;;;;;;;;;5058592;28;20035;-56
2022/12/31 06:41:31;;;;;;;4.68;1.90;;;;;;;;;;5057873;28;20242;-56
2022/12/31 06:43:56;;;;;;;4.53;1.80;;;;;;;;;;5051814;28;20317;-56
2022/12/31 06:46:21;;;;;;;3.95;1.85;;;;;;;;;;5058694;28;20028;-55
2022/12/31 06:48:46;;;;;;;4.72;1.67;;;;;;;;;;5057552;28;20477;-57
2022/12/31 06:51:13;;;;;;;3.63;1.42;;;;;;;;;;5055988;28;20649;-56
2022/12/31 06:53:39;;;;;;;4.57;2.13;;;;;;;;;;5059100;28;20024;-56
2022/12/31 06:56:05;;;;;;;4.15;1.70;;;;;;;;;;5057799;28;20025;-56
2022/12/31 06:58:30;;;;;;;4.13;2.00;;;;;;;;;;5057741;28;20138;-56
2022/12/31 07:01:05;;;;;;;6.82;2.20;;;;;;;;;;5056223;28;20354;-58
2022/12/31 07:03:57;;;;;;;6.93;2.30;;;;;;;;;;5057202;28;20266;-55
2022/12/31 07:06:22;;;;;;;6.55;2.00;;;;;;;;;;5052841;28;20110;-56
2022/12/31 07:08:53;;;;;;;3.50;1.48;;;;;;;;;;5058104;28;20476;-57
2022/12/31 07:11:29;;;;;;;7.03;2.17;;;;;;;;;;5056792;28;20024;-57
2022/12/31 07:14:26;;;;;;;5.05;1.70;;;;;;;;;;5054322;28;20086;-57
2022/12/31 07:16:55;;;;;;;3.08;1.63;;;;;;;;;;5044368;28;20060;-57
2022/12/31 07:19:26;;;;;;;7.15;2.40;;;;;;;;;;5056948;28;20498;-58
2022/12/31 07:21:52;;;;;;;4.80;1.80;;;;;;;;;;5057720;28;20383;-57
2022/12/31 07:24:17;;;;;;;5.47;1.70;;;;;;;;;;5058102;28;20317;-57
2022/12/31 07:26:45;;;;;;;8.30;2.00;;;;;;;;;;5056531;28;20514;-56
2022/12/31 07:29:12;;;;;;;4.50;1.70;;;;;;;;;;5054810;28;20085;-56
2022/12/31 07:31:51;;;;;;;6.25;2.00;;;;;;;;;;5058336;28;20628;-56
2022/12/31 07:34:16;;;;;;;5.30;1.80;;;;;;;;;;5056769;28;20024;-55
2022/12/31 07:36:44;;;;;;;5.05;1.90;;;;;;;;;;5058473;28;20079;-57
2022/12/31 07:39:11;;;;;;;5.55;1.70;;;;;;;;;;5055857;28;20394;-57
2022/12/31 07:41:37;;;;;;;4.40;1.95;;;;;;;;;;5054997;28;20044;-56
2022/12/31 07:44:11;;;;;;;7.13;2.05;;;;;;;;;;5049572;28;20598;-55
2022/12/31 07:46:42;;;;;;;5.15;1.92;;;;;;;;;;5052558;28;20013;-56
2022/12/31 07:49:10;;;;;;;7.47;1.83;;;;;;;;;;5054863;28;20028;-56
2022/12/31 07:51:36;;;;;;;5.90;1.95;;;;;;;;;;5057889;28;20056;-56
2022/12/31 07:54:01;;;;;;;4.75;2.20;;;;;;;;;;5058225;28;20534;-56
2022/12/31 07:56:27;;;;;;;3.42;1.60;;;;;;;;;;5057988;28;20022;-57
2022/12/31 07:58:55;;;;;;;5.30;1.70;;;;;;;;;;5051964;28;20020;-56
2022/12/31 08:01:31;;;;;;;10.70;5.68;;;;;;;;;;5057028;28;20025;-57
2022/12/31 08:04:08;;;;;;;5.82;2.10;;;;;;;;;;5055770;28;20013;-56
2022/12/31 08:06:36;;;;;;;5.80;2.10;;;;;;;;;;5055343;28;20056;-58
2022/12/31 08:09:03;;;;;;;3.40;1.73;;;;;;;;;;5052085;28;20046;-55
2022/12/31 08:11:33;;;;;;;5.97;2.10;;;;;;;;;;5051095;28;20024;-55
2022/12/31 08:14:01;;;;;;;6.13;1.70;;;;;;;;;;5055191;28;20032;-56
2022/12/31 08:16:27;;;;;;;4.82;2.80;;;;;;;;;;5056610;28;20051;-57
2022/12/31 08:18:52;;;;;;;6.50;3.75;;;;;;;;;;5054747;28;20324;-56
2022/12/31 08:21:36;;;;;;;7.75;1.95;;;;;;;;;;5056774;28;20032;-56
2022/12/31 08:24:04;;;;;;;6.10;1.50;;;;;;;;;;5058049;28;20052;-54
2022/12/31 08:26:36;;;;;;;10.65;1.95;;;;;;;;;;5057437;28;20024;-58
2022/12/31 08:29:12;;;;;;;17.25;6.63;;;;;;;;;;5054910;28;20256;-57
2022/12/31 08:31:47;;;;;;;6.03;1.80;;;;;;;;;;5054071;28;20660;-55
2022/12/31 08:34:21;;;;;;;20.50;6.13;;;;;;;;;;5057468;28;20094;-55
2022/12/31 08:36:49;;;;;;;3.15;2.05;;;;;;;;;;5055439;28;20463;-55
2022/12/31 08:39:16;;;;;;;11.13;4.03;;;;;;;;;;5054829;28;20039;-57
2022/12/31 08:41:44;;;;;;;9.23;3.58;;;;;;;;;;5054829;28;20025;-56
2022/12/31 08:44:12;;;;;;;5.28;1.98;;;;;;;;;;5052588;28;20350;-56
2022/12/31 08:46:39;;;;;;;7.72;2.95;;;;;;;;;;5055196;28;20028;-57
2022/12/31 08:49:06;;;;;;;5.43;3.22;;;;;;;;;;5057093;28;20025;-58
2022/12/31 08:51:31;;;;;;;6.32;2.13;;;;;;;;;;5055515;28;20426;-55
2022/12/31 08:53:56;;;;;;;10.85;2.58;;;;;;;;;;5056919;28;20031;-58
2022/12/31 08:56:25;;;;;;;5.05;2.25;;;;;;;;;;5057631;28;20021;-55
2022/12/31 08:58:50;;;;;;;6.65;2.00;;;;;;;;;;5057011;28;20107;-56
2022/12/31 09:01:17;;;;;;;5.60;2.20;;;;;;;;;;5052959;28;20116;-57
2022/12/31 09:03:52;;;;;;;7.10;1.92;;;;;;;;;;5057068;28;20028;-55
2022/12/31 09:06:40;;;;;;;7.57;3.45;;;;;;;;;;5057590;28;20044;-56
2022/12/31 09:09:29;;;;;;;4.07;1.80;;;;;;;;;;5053776;28;20034;-56
2022/12/31 09:11:54;;;;;;;5.28;2.03;;;;;;;;;;5045219;28;20028;-56
2022/12/31 09:14:24;;;;;;;5.03;2.33;;;;;;;;;;5059981;28;20028;-56
2022/12/31 09:16:56;;;;;;;6.53;2.05;;;;;;;;;;5057180;28;20020;-56
2022/12/31 09:19:21;;;;;;;3.17;1.95;;;;;;;;;;5058445;28;20020;-56
2022/12/31 09:21:46;;;;;;;6.97;2.75;;;;;;;;;;5057948;28;20400;-56
2022/12/31 09:24:12;;;;;;;12.50;4.53;;;;;;;;;;5060698;28;20047;-58
2022/12/31 09:26:40;;;;;;;10.70;4.20;;;;;;;;;;5060089;28;20073;-56
2022/12/31 09:29:05;;;;;;;7.03;2.72;;;;;;;;;;5059891;28;20666;-56
2022/12/31 09:31:34;;;;;;;7.43;2.47;;;;;;;;;;5059518;28;20017;-56
2022/12/31 09:34:05;;;;;;;8.50;2.72;;;;;;;;;;5060612;28;20240;-57
2022/12/31 09:36:33;;;;;;;5.05;1.90;;;;;;;;;;5058243;28;20693;-55
2022/12/31 09:39:18;;;;;;;9.90;4.18;;;;;;;;;;5059020;28;20086;-55
2022/12/31 09:41:59;;;;;;;13.98;4.15;;;;;;;;;;5051208;28;20123;-55
2022/12/31 09:44:43;;;;;;;6.82;2.58;;;;;;;;;;5056571;28;20024;-55
2022/12/31 09:47:11;;;;;;;4.28;1.80;;;;;;;;;;5059061;28;20028;-55
2022/12/31 09:49:36;;;;;;;5.75;1.90;;;;;;;;;;5060019;28;20115;-56
2022/12/31 09:52:22;;;;;;;6.97;2.00;;;;;;;;;;5060701;28;20440;-54
2022/12/31 09:55:06;;;;;;;5.88;2.00;;;;;;;;;;5058312;28;20298;-56
2022/12/31 09:57:38;;;;;;;7.28;2.20;;;;;;;;;;5054606;28;20052;-56
2022/12/31 10:00:04;;;;;;;7.53;1.95;;;;;;;;;;5058503;28;20128;-55
2022/12/31 10:02:29;;;;;;;3.45;1.80;;;;;;;;;;5057500;28;20123;-55
2022/12/31 10:05:03;;;;;;;6.97;2.00;;;;;;;;;;5057057;28;20121;-56
2022/12/31 10:07:31;;;;;;;7.10;1.88;;;;;;;;;;5056696;28;20241;-56
2022/12/31 10:09:59;;;;;;;4.72;1.88;;;;;;;;;;5058277;28;20502;-56
2022/12/31 10:12:34;;;;;;;4.80;1.92;;;;;;;;;;5056019;28;20024;-55
2022/12/31 10:15:00;;;;;;;4.05;1.70;;;;;;;;;;5058191;28;20024;-56
2022/12/31 10:17:31;;;;;;;8.52;2.17;;;;;;;;;;5060378;28;20591;-57
2022/12/31 10:20:04;;;;;;;4.97;1.90;;;;;;;;;;5056013;28;20029;-56
2022/12/31 10:22:29;;;;;;;7.97;2.20;;;;;;;;;;5052258;28;20403;-55
2022/12/31 10:24:54;;;;;;;6.60;1.90;;;;;;;;;;5058811;28;20126;-56
2022/12/31 10:27:38;;;;;;;5.53;1.70;;;;;;;;;;5058920;28;20020;-57
2022/12/31 10:30:33;;;;;;;11.05;1.80;;;;;;;;;;5058205;28;20047;-56
2022/12/31 10:33:06;;;;;;;11.52;2.22;;;;;;;;;;5055159;28;20043;-56
2022/12/31 10:35:53;;;;;;;6.10;1.92;;;;;;;;;;5058862;28;20020;-56
2022/12/31 10:38:31;;;;;;;7.25;1.80;;;;;;;;;;5057400;28;20025;-55
2022/12/31 10:41:14;;;;;;;5.07;1.90;;;;;;;;;;5058395;28;20032;-56
2022/12/31 10:43:45;;;;;;;6.63;2.13;;;;;;;;;;5052674;28;20020;-56
2022/12/31 10:46:28;;;;;;;4.65;1.80;;;;;;;;;;5059376;28;20024;-57
2022/12/31 10:49:12;;;;;;;6.43;1.88;;;;;;;;;;5056968;28;20040;-55
2022/12/31 10:51:37;;;;;;;8.63;1.98;;;;;;;;;;5054555;28;20107;-54
2022/12/31 10:54:21;;;;;;;8.85;1.88;;;;;;;;;;5058777;28;20021;-57
2022/12/31 10:56:55;;;;;;;4.57;2.00;;;;;;;;;;5055135;28;20386;-55
2022/12/31 10:59:39;;;;;;;10.57;2.58;;;;;;;;;;5070647;28;20021;-55
2022/12/31 11:02:04;;;;;;;7.55;2.35;;;;;;;;;;5057511;28;20504;-55
2022/12/31 11:04:33;;;;;;;5.13;2.10;;;;;;;;;;5058602;28;20121;-56
2022/12/31 11:07:07;;;;;;;6.63;2.05;;;;;;;;;;5056391;28;20502;-56
2022/12/31 11:09:38;;;;;;;4.97;1.77;;;;;;;;;;5057503;28;20048;-56
2022/12/31 11:12:03;;;;;;;6.40;2.22;;;;;;;;;;5058320;28;20516;-56
2022/12/31 11:14:44;;;;;;;9.15;2.05;;;;;;;;;;5072854;28;20562;-55
2022/12/31 11:17:09;;;;;;;5.55;1.98;;;;;;;;;;5056053;28;20556;-55
2022/12/31 11:19:43;;;;;;;6.43;2.08;;;;;;;;;;5056261;28;20025;-56
2022/12/31 11:22:12;;;;;;;8.68;1.98;;;;;;;;;;5052976;28;20055;-55
2022/12/31 11:24:37;;;;;;;5.50;1.90;;;;;;;;;;5055925;28;20023;-55
2022/12/31 11:27:06;;;;;;;9.65;2.38;;;;;;;;;;5055140;28;20028;-55
2022/12/31 11:29:31;;;;;;;6.15;2.00;;;;;;;;;;5054943;28;20487;-55
2022/12/31 11:32:00;;;;;;;6.80;2.40;;;;;;;;;;5058396;28;20542;-56
2022/12/31 11:34:32;;;;;;;8.73;2.40;;;;;;;;;;5055496;28;20027;-56
2022/12/31 11:37:17;;;;;;;5.70;2.08;;;;;;;;;;5057973;28;20029;-56
2022/12/31 11:39:53;;;;;;;5.85;2.00;;;;;;;;;;5055223;28;20062;-55
2022/12/31 11:42:31;;;;;;;5.47;2.10;;;;;;;;;;5053501;28;20025;-56
2022/12/31 11:45:16;;;;;;;7.97;2.20;;;;;;;;;;5051609;28;20489;-55
2022/12/31 11:47:48;;;;;;;6.95;1.90;;;;;;;;;;5054648;28;20044;-55
2022/12/31 11:50:32;;;;;;;7.38;2.33;;;;;;;;;;5055883;28;20040;-57
2022/12/31 11:52:57;;;;;;;5.68;2.00;;;;;;;;;;5055358;28;20070;-57
2022/12/31 11:55:35;;;;;;;5.25;1.80;;;;;;;;;;5056058;28;20028;-57
2022/12/31 11:58:01;;;;;;;4.57;2.10;;;;;;;;;;5056793;28;20023;-57
2022/12/31 12:00:27;;;;;;;12.23;2.85;;;;;;;;;;5056120;28;20032;-57
2022/12/31 12:02:59;;;;;;;4.13;2.20;;;;;;;;;;5056547;28;21183;-58
2022/12/31 12:05:25;;;;;;;5.90;2.25;;;;;;;;;;5055273;28;20445;-56
2022/12/31 12:07:50;;;;;;;11.02;2.05;;;;;;;;;;5056764;28;20034;-56
2022/12/31 12:10:23;;;;;;;6.93;2.00;;;;;;;;;;5054240;28;20625;-57
2022/12/31 12:12:48;;;;;;;11.50;2.95;;;;;;;;;;5057227;28;20096;-57
2022/12/31 12:15:25;;;;;;;5.18;1.90;;;;;;;;;;5055768;28;20170;-56
2022/12/31 12:17:51;;;;;;;8.32;1.95;;;;;;;;;;5054253;28;20016;-55
2022/12/31 12:20:17;;;;;;;5.45;1.85;;;;;;;;;;5056781;28;20024;-55
2022/12/31 12:22:49;;;;;;;8.38;2.20;;;;;;;;;;5056322;28;20080;-55
2022/12/31 12:25:16;;;;;;;6.20;2.20;;;;;;;;;;5048230;28;20032;-55
2022/12/31 12:27:41;;;;;;;5.43;2.10;;;;;;;;;;5053371;28;20112;-56
2022/12/31 12:30:26;;;;;;;5.50;2.40;;;;;;;;;;5056642;28;20036;-55
2022/12/31 12:32:59;;;;;;;5.00;2.00;;;;;;;;;;5053467;28;20083;-55
2022/12/31 12:35:28;;;;;;;7.32;2.20;;;;;;;;;;5055814;28;20025;-55
2022/12/31 12:37:59;;;;;;;8.15;2.10;;;;;;;;;;5043783;28;20038;-55
2022/12/31 12:40:25;;;;;;;7.68;2.03;;;;;;;;;;5054179;28;20450;-55
2022/12/31 12:42:51;;;;;;;4.10;1.77;;;;;;;;;;5055530;28;20103;-55
2022/12/31 12:45:17;;;;;;;4.32;2.17;;;;;;;;;;5051529;28;20103;-55
2022/12/31 12:47:43;;;;;;;7.88;2.28;;;;;;;;;;5055407;28;20031;-56
2022/12/31 12:50:12;;;;;;;9.95;2.40;;;;;;;;;;5058976;28;20028;-57
2022/12/31 12:52:53;;;;;;;6.53;2.05;;;;;;;;;;5058377;28;20291;-56
2022/12/31 12:55:36;;;;;;;6.97;2.20;;;;;;;;;;5056833;28;20031;-56
2022/12/31 12:58:12;;;;;;;6.22;2.25;;;;;;;;;;5058861;28;20031;-57
2022/12/31 13:00:38;;;;;;;6.22;1.98;;;;;;;;;;5059959;28;20020;-57
2022/12/31 13:03:23;;;;;;;5.20;1.83;;;;;;;;;;5059588;28;20055;-56
2022/12/31 13:05:52;;;;;;;9.68;2.63;;;;;;;;;;5033617;28;20339;-56
2022/12/31 13:08:20;;;;;;;6.47;2.10;;;;;;;;;;5056087;28;20026;-56
2022/12/31 13:10:49;;;;;;;3.97;1.73;;;;;;;;;;5059445;28;20032;-56
2022/12/31 13:13:23;;;;;;;6.68;2.08;;;;;;;;;;5059781;28;20052;-56
2022/12/31 13:15:52;;;;;;;5.15;2.10;;;;;;;;;;5056998;28;20023;-56
2022/12/31 13:18:17;;;;;;;8.05;2.08;;;;;;;;;;5052565;28;20028;-56
2022/12/31 13:20:44;;;;;;;9.75;2.17;;;;;;;;;;5058606;28;20446;-57
2022/12/31 13:23:42;;;;;;;5.72;2.20;;;;;;;;;;5054664;28;20024;-56
2022/12/31 13:26:34;;;;;;;5.15;2.08;;;;;;;;;;5033707;28;20458;-56
2022/12/31 13:28:59;;;;;;;3.42;1.88;;;;;;;;;;5046720;28;20121;-56
2022/12/31 13:31:32;;;;;;;3.88;1.85;;;;;;;;;;5040582;28;20513;-55
2022/12/31 13:34:03;;;;;;;6.38;2.05;;;;;;;;;;5057173;28;20342;-57
2022/12/31 13:36:28;;;;;;;7.35;2.13;;;;;;;;;;5059368;28;20020;-55
2022/12/31 13:38:54;;;;;;;7.75;2.00;;;;;;;;;;5056750;28;20093;-56
2022/12/31 13:41:40;;;;;;;6.22;2.30;;;;;;;;;;5054938;28;20020;-57
2022/12/31 13:44:24;;;;;;;9.63;2.50;;;;;;;;;;5062282;28;20308;-56
2022/12/31 13:46:50;;;;;;;4.93;2.05;;;;;;;;;;5058223;28;20081;-55
2022/12/31 13:49:31;;;;;;;5.03;2.05;;;;;;;;;;5056342;28;20298;-55
2022/12/31 13:52:06;;;;;;;5.07;2.03;;;;;;;;;;5054369;28;20361;-55
2022/12/31 13:54:37;;;;;;;5.95;2.10;;;;;;;;;;5052981;28;20233;-55
2022/12/31 13:57:04;;;;;;;7.15;2.03;;;;;;;;;;5058811;28;20422;-56
2022/12/31 13:59:34;;;;;;;6.97;2.00;;;;;;;;;;5057225;28;20485;-57
2022/12/31 14:02:01;;;;;;;8.13;2.03;;;;;;;;;;5058994;28;20032;-55
2022/12/31 14:04:29;;;;;;;9.52;2.20;;;;;;;;;;5057260;28;20108;-55
2022/12/31 14:06:59;;;;;;;4.22;1.85;;;;;;;;;;5053580;28;20351;-55
2022/12/31 14:09:24;;;;;;;7.18;2.45;;;;;;;;;;5057938;28;20474;-55
2022/12/31 14:11:50;;;;;;;4.38;2.30;;;;;;;;;;5059256;28;20028;-57
2022/12/31 14:14:24;;;;;;;10.85;2.35;;;;;;;;;;5058992;28;20111;-56
2022/12/31 14:16:52;;;;;;;5.82;2.15;;;;;;;;;;5056684;28;20028;-57
2022/12/31 14:19:22;;;;;;;6.85;2.50;;;;;;;;;;5059247;28;20585;-55
2022/12/31 14:21:50;;;;;;;7.20;2.40;;;;;;;;;;5050903;28;20029;-56
2022/12/31 14:24:27;;;;;;;9.18;3.10;;;;;;;;;;5058040;28;20012;-55
2022/12/31 14:26:54;;;;;;;6.43;2.67;;;;;;;;;;5058464;28;20066;-56
2022/12/31 14:29:25;;;;;;;6.05;2.47;;;;;;;;;;5056766;28;20502;-54
2022/12/31 14:31:59;;;;;;;9.82;2.65;;;;;;;;;;5055770;28;20028;-57
2022/12/31 14:34:43;;;;;;;5.22;2.58;;;;;;;;;;5057009;28;20403;-57
2022/12/31 14:37:12;;;;;;;7.88;2.55;;;;;;;;;;5057954;28;20036;-56
2022/12/31 14:39:46;;;;;;;6.85;2.22;;;;;;;;;;5058796;28;20312;-56
2022/12/31 14:42:14;;;;;;;7.43;2.55;;;;;;;;;;5055842;28;20428;-56
2022/12/31 14:44:42;;;;;;;10.38;2.33;;;;;;;;;;5049388;28;20028;-57
2022/12/31 14:47:07;;;;;;;5.82;2.58;;;;;;;;;;5054890;28;20495;-56
2022/12/31 14:49:39;;;;;;;5.72;2.38;;;;;;;;;;5059024;28;20041;-55
2022/12/31 14:52:08;;;;;;;8.15;2.50;;;;;;;;;;5055563;28;20036;-56
2022/12/31 14:54:34;;;;;;;8.60;2.40;;;;;;;;;;5038302;28;20107;-59
2022/12/31 14:57:08;;;;;;;6.90;2.30;;;;;;;;;;5054981;28;20361;-59
2022/12/31 14:59:33;;;;;;;6.57;2.50;;;;;;;;;;5058018;28;20256;-59
2022/12/31 15:01:58;;;;;;;3.95;2.30;;;;;;;;;;5058158;28;20683;-59
2022/12/31 15:04:40;;;;;;;8.95;2.80;;;;;;;;;;5059408;28;20479;-58
2022/12/31 15:07:21;;;;;;;7.50;2.60;;;;;;;;;;5059078;28;20068;-59